La Sardane — FO4883 — position and weather

sailwx.info

Track history (hours):
 
Tides and Currents Weather Stations Pressure Air Temp Water Temp Dewpoint Dewpoint Depression Visibility Wind Speed Wind Dir Waves Ship Positions

La Sardane

Last reported at 2017-Nov-16 23:09 UTC. Time now 2017-Nov-19 04:58 UTC.
Position N 48°06' W 004°19'.

Length 16 m.

Type: Fishing. MMSI: 227318010.

Date/timePositionNaut miles runAvg speedWind from/ knotsBaromVisibWave heightAir tempDewpointWater temp
2017-Nov-16 23:09N 48°06' W 004°19'0 0.0
2017-Nov-16 23:00N 48°06' W 004°19'0 0.0
2017-Nov-16 22:30N 48°06' W 004°19'0 0.0
2017-Nov-16 22:00N 48°06' W 004°19'0 0.1
2017-Nov-16 21:30N 48°06' W 004°19'0 0.0
2017-Nov-16 21:00N 48°06' W 004°19'0 0.0
2017-Nov-16 20:30N 48°06' W 004°19'2 4.7
2017-Nov-16 20:01N 48°08' W 004°18'3 5.9
2017-Nov-16 19:31N 48°11' W 004°20'2 4.6
2017-Nov-16 19:00N 48°11' W 004°24'0 0.4
2017-Nov-16 18:30N 48°11' W 004°23'2 4.4
2017-Nov-16 18:00N 48°08' W 004°23'0 0.3
2017-Nov-16 17:30N 48°09' W 004°22'1 1.7
2017-Nov-16 17:00N 48°08' W 004°22'1 1.3
2017-Nov-16 16:30N 48°08' W 004°23'1 2.9
2017-Nov-16 16:00N 48°07' W 004°25'4 7.4
2017-Nov-16 15:31N 48°06' W 004°19'0 0.0
2017-Nov-15 22:25N 48°06' W 004°19'0 0.2
2017-Nov-15 22:00N 48°06' W 004°19'0 0.0
2017-Nov-15 21:30N 48°06' W 004°19'0 0.0
2017-Nov-15 21:00N 48°06' W 004°19'0 0.0
2017-Nov-15 20:30N 48°06' W 004°19'1 1.8
2017-Nov-15 20:00N 48°07' W 004°20'4 7.2
2017-Nov-15 19:30N 48°09' W 004°25'3 5.7
2017-Nov-15 19:00N 48°07' W 004°28'1 1.7
2017-Nov-15 18:30N 48°07' W 004°29'0 0.4
2017-Nov-15 18:01N 48°07' W 004°29'1 1.5
2017-Nov-15 17:30N 48°07' W 004°28'0 0.7
2017-Nov-15 17:00N 48°07' W 004°27'1 1.6
2017-Nov-15 16:31N 48°08' W 004°28'4 8.5
2017-Nov-15 16:01N 48°07' W 004°22'2 4.1
2017-Nov-15 15:30N 48°06' W 004°19'0 0.0
2017-Nov-14 21:08N 48°06' W 004°19'0 0.3
2017-Nov-14 21:00N 48°06' W 004°19'0 0.0
2017-Nov-14 20:31N 48°06' W 004°19'0 0.0
2017-Nov-14 20:00N 48°06' W 004°19'0 0.0
2017-Nov-14 19:30N 48°06' W 004°19'0 0.0
2017-Nov-14 19:00N 48°06' W 004°19'0 0.0
2017-Nov-14 18:30N 48°06' W 004°19'3 6.4
2017-Nov-14 18:00N 48°07' W 004°24'1 1.6
2017-Nov-14 17:29N 48°08' W 004°25'0 0.1
2017-Nov-14 17:01N 48°08' W 004°25'2 3.6
2017-Nov-14 16:30N 48°09' W 004°24'5 7.9
2017-Nov-14 15:55N 48°06' W 004°19'0 0.0
2017-Nov-14 05:18N 48°06' W 004°19'0 0.0
2017-Nov-14 05:00N 48°06' W 004°19'0 0.2
2017-Nov-14 04:30N 48°06' W 004°19'0 0.0
2017-Nov-14 04:00N 48°06' W 004°19'0 0.0
2017-Nov-14 03:30N 48°06' W 004°19'1 2.4
2017-Nov-14 03:00N 48°07' W 004°21'2 4.5
2017-Nov-14 02:31N 48°07' W 004°24'0 0.8
2017-Nov-14 02:01N 48°08' W 004°24'0 1.0
2017-Nov-14 01:31N 48°08' W 004°23'1 1.7
2017-Nov-14 01:01N 48°08' W 004°25'1 1.8
2017-Nov-14 00:30N 48°09' W 004°25'1 2.6
2017-Nov-14 00:00N 48°10' W 004°26'2 3.1
2017-Nov-13 23:30N 48°10' W 004°24'4 7.2
2017-Nov-13 23:00N 48°09' W 004°19'3 5.7
2017-Nov-13 22:30N 48°08' W 004°23'2 4.8
2017-Nov-13 22:01N 48°10' W 004°26'  
2017-Nov-09 23:40N 48°06' W 004°19'0 0.0
2017-Nov-09 23:30N 48°06' W 004°19'0 0.2
2017-Nov-09 23:00N 48°06' W 004°19'2 4.0
2017-Nov-09 22:31N 48°07' W 004°22'4 7.8
2017-Nov-09 22:01N 48°06' W 004°28'1 2.1
2017-Nov-09 21:30N 48°06' W 004°29'1 1.1
2017-Nov-09 21:00N 48°06' W 004°30'0 0.1
2017-Nov-09 20:31N 48°06' W 004°30'3 6.1
2017-Nov-09 20:00N 48°07' W 004°34'4 8.9
2017-Nov-09 19:30N 48°08' W 004°41'5 9.2
2017-Nov-09 19:00N 48°10' W 004°47'4 8.1
2017-Nov-09 18:31N 48°13' W 004°51'4 8.8
2017-Nov-09 18:00N 48°17' W 004°54'3 6.6
2017-Nov-09 17:31N 48°17' W 004°49'1 1.4
2017-Nov-09 17:01N 48°17' W 004°50'4 8.1
2017-Nov-09 16:31N 48°14' W 004°46'4 8.4
2017-Nov-09 16:01N 48°12' W 004°40'4 8.4
2017-Nov-09 15:30N 48°10' W 004°35'4 8.1
2017-Nov-09 15:01N 48°09' W 004°29'4 8.3
2017-Nov-09 14:30N 48°07' W 004°23'3 5.7
2017-Nov-09 14:01N 48°06' W 004°19'0 0.0
2017-Nov-09 05:04N 48°06' W 004°19'0 0.1
2017-Nov-09 05:00N 48°06' W 004°19'0 0.2
2017-Nov-09 04:31N 48°06' W 004°20'0 0.2
2017-Nov-09 04:01N 48°06' W 004°19'0 0.0
2017-Nov-09 03:30N 48°06' W 004°19'0 0.0
2017-Nov-09 03:00N 48°06' W 004°19'0 0.0
2017-Nov-09 02:30N 48°06' W 004°19'0 0.0
2017-Nov-09 02:00N 48°06' W 004°19'0 0.0
2017-Nov-09 01:30N 48°06' W 004°19'0 0.0
2017-Nov-09 01:00N 48°06' W 004°19'0 0.8
2017-Nov-09 00:31N 48°06' W 004°20'4 8.7
2017-Nov-09 00:00N 48°08' W 004°26'4 8.5
2017-Nov-08 23:31N 48°09' W 004°32'4 8.1
2017-Nov-08 23:01N 48°10' W 004°38'4 8.8
2017-Nov-08 22:31N 48°12' W 004°44'5 9.0
2017-Nov-08 22:00N 48°15' W 004°49'2 4.0
2017-Nov-08 21:31N 48°16' W 004°51'0 0.7
2017-Nov-08 21:01N 48°17' W 004°52'1 1.5
2017-Nov-08 20:30N 48°17' W 004°51'0 0.6
2017-Nov-08 20:00N 48°17' W 004°51'0 0.2
2017-Nov-08 19:31N 48°18' W 004°51'0 0.8
2017-Nov-08 19:01N 48°18' W 004°51'0 0.6
2017-Nov-08 18:30N 48°17' W 004°51'0 0.7
2017-Nov-08 18:01N 48°18' W 004°51'1 1.6
2017-Nov-08 17:31N 48°18' W 004°50'4 7.5
2017-Nov-08 17:00N 48°15' W 004°46'4 8.5
2017-Nov-08 16:30N 48°13' W 004°41'4 8.5
2017-Nov-08 16:00N 48°10' W 004°35'4 8.1
2017-Nov-08 15:30N 48°09' W 004°30'4 8.4
2017-Nov-08 15:00N 48°07' W 004°24'3 6.7
2017-Nov-08 14:31N 48°06' W 004°19'0 0.0
2017-Nov-08 14:00N 48°06' W 004°19'0 0.0
2017-Nov-07 01:51N 48°06' W 004°19'0 0.1
2017-Nov-07 01:31N 48°06' W 004°19'0 0.0
2017-Nov-07 01:00N 48°06' W 004°19'0 0.0
2017-Nov-07 00:30N 48°06' W 004°19'0 0.0
2017-Nov-07 00:01N 48°06' W 004°19'0 0.0
2017-Nov-06 23:31N 48°06' W 004°19'  
Track history (hours):
 
Tides and Currents Weather Stations Pressure Air Temp Water Temp Dewpoint Dewpoint Depression Visibility Wind Speed Wind Dir Waves Ship Positions

La Sardane

Last reported at 2017-Nov-16 23:09 UTC. Time now 2017-Nov-19 04:58 UTC.
Position N 48°06' W 004°19'.

Length 16 m.

Type: Fishing. MMSI: 227318010.

Date/timePositionNaut miles runAvg speedWind from/ knotsBaromVisibWave heightAir tempDewpointWater temp
2017-Nov-16 23:09N 48°06' W 004°19'0 0.0
2017-Nov-16 23:00N 48°06' W 004°19'0 0.0
2017-Nov-16 22:30N 48°06' W 004°19'0 0.0
2017-Nov-16 22:00N 48°06' W 004°19'0 0.1
2017-Nov-16 21:30N 48°06' W 004°19'0 0.0
2017-Nov-16 21:00N 48°06' W 004°19'0 0.0
2017-Nov-16 20:30N 48°06' W 004°19'2 4.7
2017-Nov-16 20:01N 48°08' W 004°18'3 5.9
2017-Nov-16 19:31N 48°11' W 004°20'2 4.6
2017-Nov-16 19:00N 48°11' W 004°24'0 0.4
2017-Nov-16 18:30N 48°11' W 004°23'2 4.4
2017-Nov-16 18:00N 48°08' W 004°23'0 0.3
2017-Nov-16 17:30N 48°09' W 004°22'1 1.7
2017-Nov-16 17:00N 48°08' W 004°22'1 1.3
2017-Nov-16 16:30N 48°08' W 004°23'1 2.9
2017-Nov-16 16:00N 48°07' W 004°25'4 7.4
2017-Nov-16 15:31N 48°06' W 004°19'0 0.0
2017-Nov-15 22:25N 48°06' W 004°19'0 0.2
2017-Nov-15 22:00N 48°06' W 004°19'0 0.0
2017-Nov-15 21:30N 48°06' W 004°19'0 0.0
2017-Nov-15 21:00N 48°06' W 004°19'0 0.0
2017-Nov-15 20:30N 48°06' W 004°19'1 1.8
2017-Nov-15 20:00N 48°07' W 004°20'4 7.2
2017-Nov-15 19:30N 48°09' W 004°25'3 5.7
2017-Nov-15 19:00N 48°07' W 004°28'1 1.7
2017-Nov-15 18:30N 48°07' W 004°29'0 0.4
2017-Nov-15 18:01N 48°07' W 004°29'1 1.5
2017-Nov-15 17:30N 48°07' W 004°28'0 0.7
2017-Nov-15 17:00N 48°07' W 004°27'1 1.6
2017-Nov-15 16:31N 48°08' W 004°28'4 8.5
2017-Nov-15 16:01N 48°07' W 004°22'2 4.1
2017-Nov-15 15:30N 48°06' W 004°19'0 0.0
2017-Nov-14 21:08N 48°06' W 004°19'0 0.3
2017-Nov-14 21:00N 48°06' W 004°19'0 0.0
2017-Nov-14 20:31N 48°06' W 004°19'0 0.0
2017-Nov-14 20:00N 48°06' W 004°19'0 0.0
2017-Nov-14 19:30N 48°06' W 004°19'0 0.0
2017-Nov-14 19:00N 48°06' W 004°19'0 0.0
2017-Nov-14 18:30N 48°06' W 004°19'3 6.4
2017-Nov-14 18:00N 48°07' W 004°24'1 1.6
2017-Nov-14 17:29N 48°08' W 004°25'0 0.1
2017-Nov-14 17:01N 48°08' W 004°25'2 3.6
2017-Nov-14 16:30N 48°09' W 004°24'5 7.9
2017-Nov-14 15:55N 48°06' W 004°19'0 0.0
2017-Nov-14 05:18N 48°06' W 004°19'0 0.0
2017-Nov-14 05:00N 48°06' W 004°19'0 0.2
2017-Nov-14 04:30N 48°06' W 004°19'0 0.0
2017-Nov-14 04:00N 48°06' W 004°19'0 0.0
2017-Nov-14 03:30N 48°06' W 004°19'1 2.4
2017-Nov-14 03:00N 48°07' W 004°21'2 4.5
2017-Nov-14 02:31N 48°07' W 004°24'0 0.8
2017-Nov-14 02:01N 48°08' W 004°24'0 1.0
2017-Nov-14 01:31N 48°08' W 004°23'1 1.7
2017-Nov-14 01:01N 48°08' W 004°25'1 1.8
2017-Nov-14 00:30N 48°09' W 004°25'1 2.6
2017-Nov-14 00:00N 48°10' W 004°26'2 3.1
2017-Nov-13 23:30N 48°10' W 004°24'4 7.2
2017-Nov-13 23:00N 48°09' W 004°19'3 5.7
2017-Nov-13 22:30N 48°08' W 004°23'2 4.8
2017-Nov-13 22:01N 48°10' W 004°26'  
2017-Nov-09 23:40N 48°06' W 004°19'0 0.0
2017-Nov-09 23:30N 48°06' W 004°19'0 0.2
2017-Nov-09 23:00N 48°06' W 004°19'2 4.0
2017-Nov-09 22:31N 48°07' W 004°22'4 7.8
2017-Nov-09 22:01N 48°06' W 004°28'1 2.1
2017-Nov-09 21:30N 48°06' W 004°29'1 1.1
2017-Nov-09 21:00N 48°06' W 004°30'0 0.1
2017-Nov-09 20:31N 48°06' W 004°30'3 6.1
2017-Nov-09 20:00N 48°07' W 004°34'4 8.9
2017-Nov-09 19:30N 48°08' W 004°41'5 9.2
2017-Nov-09 19:00N 48°10' W 004°47'4 8.1
2017-Nov-09 18:31N 48°13' W 004°51'4 8.8
2017-Nov-09 18:00N 48°17' W 004°54'3 6.6
2017-Nov-09 17:31N 48°17' W 004°49'1 1.4
2017-Nov-09 17:01N 48°17' W 004°50'4 8.1
2017-Nov-09 16:31N 48°14' W 004°46'4 8.4
2017-Nov-09 16:01N 48°12' W 004°40'4 8.4
2017-Nov-09 15:30N 48°10' W 004°35'4 8.1
2017-Nov-09 15:01N 48°09' W 004°29'4 8.3
2017-Nov-09 14:30N 48°07' W 004°23'3 5.7
2017-Nov-09 14:01N 48°06' W 004°19'0 0.0
2017-Nov-09 05:04N 48°06' W 004°19'0 0.1
2017-Nov-09 05:00N 48°06' W 004°19'0 0.2
2017-Nov-09 04:31N 48°06' W 004°20'0 0.2
2017-Nov-09 04:01N 48°06' W 004°19'0 0.0
2017-Nov-09 03:30N 48°06' W 004°19'0 0.0
2017-Nov-09 03:00N 48°06' W 004°19'0 0.0
2017-Nov-09 02:30N 48°06' W 004°19'0 0.0
2017-Nov-09 02:00N 48°06' W 004°19'0 0.0
2017-Nov-09 01:30N 48°06' W 004°19'0 0.0
2017-Nov-09 01:00N 48°06' W 004°19'0 0.8
2017-Nov-09 00:31N 48°06' W 004°20'4 8.7
2017-Nov-09 00:00N 48°08' W 004°26'4 8.5
2017-Nov-08 23:31N 48°09' W 004°32'4 8.1
2017-Nov-08 23:01N 48°10' W 004°38'4 8.8
2017-Nov-08 22:31N 48°12' W 004°44'5 9.0
2017-Nov-08 22:00N 48°15' W 004°49'2 4.0
2017-Nov-08 21:31N 48°16' W 004°51'0 0.7
2017-Nov-08 21:01N 48°17' W 004°52'1 1.5
2017-Nov-08 20:30N 48°17' W 004°51'0 0.6
2017-Nov-08 20:00N 48°17' W 004°51'0 0.2
2017-Nov-08 19:31N 48°18' W 004°51'0 0.8
2017-Nov-08 19:01N 48°18' W 004°51'0 0.6
2017-Nov-08 18:30N 48°17' W 004°51'0 0.7
2017-Nov-08 18:01N 48°18' W 004°51'1 1.6
2017-Nov-08 17:31N 48°18' W 004°50'4 7.5
2017-Nov-08 17:00N 48°15' W 004°46'4 8.5
2017-Nov-08 16:30N 48°13' W 004°41'4 8.5
2017-Nov-08 16:00N 48°10' W 004°35'4 8.1
2017-Nov-08 15:30N 48°09' W 004°30'4 8.4
2017-Nov-08 15:00N 48°07' W 004°24'3 6.7
2017-Nov-08 14:31N 48°06' W 004°19'0 0.0
2017-Nov-08 14:00N 48°06' W 004°19'0 0.0
2017-Nov-07 01:51N 48°06' W 004°19'0 0.1
2017-Nov-07 01:31N 48°06' W 004°19'0 0.0
2017-Nov-07 01:00N 48°06' W 004°19'0 0.0
2017-Nov-07 00:30N 48°06' W 004°19'0 0.0
2017-Nov-07 00:01N 48°06' W 004°19'0 0.0
2017-Nov-06 23:31N 48°06' W 004°19'  

Dump ship's entire track history